Charlottesville Albemarle Airport
KCHO : rendu visible

Aérodrome :











RETROUVEZ-NOUS SUR...

 
LOGIN :

S'inscrire | Disclaimer

   EN    FR    IT 

 









Légende :    VFR   VFR Marginal   IFR   IFR Intensif   IFR Très Intensif
Visi : 
Plafond : 
>= 8 km
>= 3000ft
5 à 8 km
1000 à 3000 ft
1500m à 5 km
500 à 1000 ft
800 à 1500m
200 à 500 ft
< 800m
< 200 ft
Symboles :   Orages  Brouillard  Fortes neiges  Fortes précipitations  Vent > 20 kt






- Altitude de l'aérodrome : 639 ft
- Code IATA : CHO


KCHO - Charlottesville Albemarle

DERNIER METAR :
  • 170953Z AUTO 03014KT 10SM OVC029 03/M06 A3025 RMK AO2 SLP244 T00331056

METARs EXPIRÉS :
  • 170853Z AUTO 03012G20KT 10SM OVC029 03/M06 A3025 RMK AO2 SLP244 T00331061 56016
  • 170811Z AUTO 03013KT 10SM BKN024 BKN030 OVC036 03/M06 A3026 RMK AO2 T00331061
  • 170753Z AUTO 03012KT 10SM OVC031 03/M06 A3026 RMK AO2 SLP249 T00331061

TAF KCHO
Valide du 17 à 09h jusqu'au 18 à 06h UTC


170844Z 1709/1806 01008KT P6SM SCT020 BKN025
FM171600 02008KT P6SM SCT035 BKN050
FM172000 02006KT P6SM SCT035 BKN060
FM172300 01006KT P6SM SCT035 BKN050
FM180300 35005KT P6SM SCT025 BKN040



MET'MAP, la Météo Aéronautique d'un coup d'oeil ! - Copyright ORBIFLY Décembre 2007 - Disclaimer

ORBIFLY MET'MAP TEAM :

Programmation & Développement : Alexandra Zaïnal
Conception & Développement : Baudouin d'Aumeries
Co-Programmation & Développement : Marc-Olivier Méhu
Soutien technique & logistique : Manuel Goepfert

Contact : metmap@orbifly.com




SOURCES & CREDITS :

   NOAA       Earth
Advisory